sensor_id;sensor_type;location;lat;lon;timestamp;P1;durP1;ratioP1;P2;durP2;ratioP2
55539;SDS011;41384;51.418;7.286;2022-12-07T00:01:17;33.20;;;17.77;;
55539;SDS011;41384;51.418;7.286;2022-12-07T00:03:48;30.67;;;17.40;;
55539;SDS011;41384;51.418;7.286;2022-12-07T00:06:15;31.55;;;17.55;;
55539;SDS011;41384;51.418;7.286;2022-12-07T00:08:41;28.45;;;16.42;;
55539;SDS011;41384;51.418;7.286;2022-12-07T00:11:17;29.42;;;16.40;;
55539;SDS011;41384;51.418;7.286;2022-12-07T00:13:44;32.67;;;17.95;;
55539;SDS011;41384;51.418;7.286;2022-12-07T00:16:12;29.08;;;16.63;;
55539;SDS011;41384;51.418;7.286;2022-12-07T00:18:39;32.15;;;17.52;;
55539;SDS011;41384;51.418;7.286;2022-12-07T00:21:06;29.77;;;16.75;;
55539;SDS011;41384;51.418;7.286;2022-12-07T00:23:34;29.92;;;17.92;;
55539;SDS011;41384;51.418;7.286;2022-12-07T00:26:03;28.92;;;16.30;;
55539;SDS011;41384;51.418;7.286;2022-12-07T00:28:33;29.23;;;16.77;;
55539;SDS011;41384;51.418;7.286;2022-12-07T00:31:06;29.00;;;15.40;;
55539;SDS011;41384;51.418;7.286;2022-12-07T00:33:33;31.13;;;16.35;;
55539;SDS011;41384;51.418;7.286;2022-12-07T00:35:59;28.30;;;16.10;;
55539;SDS011;41384;51.418;7.286;2022-12-07T00:38:28;33.20;;;17.95;;
55539;SDS011;41384;51.418;7.286;2022-12-07T00:40:58;31.17;;;17.15;;
55539;SDS011;41384;51.418;7.286;2022-12-07T00:43:24;29.45;;;16.88;;
55539;SDS011;41384;51.418;7.286;2022-12-07T00:45:50;32.45;;;16.90;;
55539;SDS011;41384;51.418;7.286;2022-12-07T00:48:15;29.88;;;16.48;;
55539;SDS011;41384;51.418;7.286;2022-12-07T00:50:40;34.35;;;17.27;;
55539;SDS011;41384;51.418;7.286;2022-12-07T00:53:05;27.10;;;15.90;;
55539;SDS011;41384;51.418;7.286;2022-12-07T00:55:34;27.35;;;16.17;;
55539;SDS011;41384;51.418;7.286;2022-12-07T00:58:00;29.85;;;17.50;;
55539;SDS011;41384;51.418;7.286;2022-12-07T01:00:26;26.42;;;15.70;;
55539;SDS011;41384;51.418;7.286;2022-12-07T01:02:51;30.85;;;15.50;;
55539;SDS011;41384;51.418;7.286;2022-12-07T01:05:17;31.35;;;17.63;;
55539;SDS011;41384;51.418;7.286;2022-12-07T01:07:42;36.10;;;17.90;;
55539;SDS011;41384;51.418;7.286;2022-12-07T01:10:07;31.73;;;17.63;;
55539;SDS011;41384;51.418;7.286;2022-12-07T01:12:33;34.92;;;18.75;;
55539;SDS011;41384;51.418;7.286;2022-12-07T01:14:58;31.85;;;17.40;;
55539;SDS011;41384;51.418;7.286;2022-12-07T01:17:23;35.92;;;18.52;;
55539;SDS011;41384;51.418;7.286;2022-12-07T01:19:49;34.42;;;17.52;;
55539;SDS011;41384;51.418;7.286;2022-12-07T01:22:14;31.13;;;18.08;;
55539;SDS011;41384;51.418;7.286;2022-12-07T01:24:39;40.92;;;21.00;;
55539;SDS011;41384;51.418;7.286;2022-12-07T01:27:04;34.95;;;19.27;;
55539;SDS011;41384;51.418;7.286;2022-12-07T01:29:30;38.90;;;20.40;;
55539;SDS011;41384;51.418;7.286;2022-12-07T01:31:55;37.97;;;19.50;;
55539;SDS011;41384;51.418;7.286;2022-12-07T01:34:20;38.30;;;19.40;;
55539;SDS011;41384;51.418;7.286;2022-12-07T01:36:45;37.42;;;19.25;;
55539;SDS011;41384;51.418;7.286;2022-12-07T01:39:11;41.65;;;21.30;;
55539;SDS011;41384;51.418;7.286;2022-12-07T01:41:37;36.50;;;20.38;;
55539;SDS011;41384;51.418;7.286;2022-12-07T01:46:43;36.80;;;19.40;;
55539;SDS011;41384;51.418;7.286;2022-12-07T01:54:46;45.45;;;21.00;;
55539;SDS011;41384;51.418;7.286;2022-12-07T01:57:14;41.38;;;20.70;;
55539;SDS011;41384;51.418;7.286;2022-12-07T01:59:42;42.85;;;21.10;;
55539;SDS011;41384;51.418;7.286;2022-12-07T02:02:11;41.08;;;21.08;;
55539;SDS011;41384;51.418;7.286;2022-12-07T02:04:42;41.58;;;20.88;;
55539;SDS011;41384;51.418;7.286;2022-12-07T02:07:08;41.00;;;21.30;;
55539;SDS011;41384;51.418;7.286;2022-12-07T02:09:33;41.28;;;21.98;;
55539;SDS011;41384;51.418;7.286;2022-12-07T02:11:59;47.05;;;23.02;;
55539;SDS011;41384;51.418;7.286;2022-12-07T02:14:24;40.70;;;20.45;;
55539;SDS011;41384;51.418;7.286;2022-12-07T02:22:39;39.03;;;20.42;;
55539;SDS011;41384;51.418;7.286;2022-12-07T02:28:33;37.08;;;20.55;;
55539;SDS011;41384;51.418;7.286;2022-12-07T02:31:03;41.83;;;19.90;;
55539;SDS011;41384;51.418;7.286;2022-12-07T02:33:46;39.42;;;19.58;;
55539;SDS011;41384;51.418;7.286;2022-12-07T02:36:23;40.90;;;20.45;;
55539;SDS011;41384;51.418;7.286;2022-12-07T02:38:55;41.20;;;19.77;;
55539;SDS011;41384;51.418;7.286;2022-12-07T02:41:32;37.45;;;20.45;;
55539;SDS011;41384;51.418;7.286;2022-12-07T02:44:02;45.13;;;23.00;;
55539;SDS011;41384;51.418;7.286;2022-12-07T02:46:36;38.65;;;20.08;;
55539;SDS011;41384;51.418;7.286;2022-12-07T02:49:05;41.75;;;21.27;;
55539;SDS011;41384;51.418;7.286;2022-12-07T02:51:33;45.58;;;21.58;;
55539;SDS011;41384;51.418;7.286;2022-12-07T02:53:58;42.40;;;21.25;;
55539;SDS011;41384;51.418;7.286;2022-12-07T02:56:30;45.42;;;22.55;;
55539;SDS011;41384;51.418;7.286;2022-12-07T03:01:50;47.35;;;22.90;;
55539;SDS011;41384;51.418;7.286;2022-12-07T03:07:44;43.28;;;21.35;;
55539;SDS011;41384;51.418;7.286;2022-12-07T03:10:22;36.33;;;20.10;;
55539;SDS011;41384;51.418;7.286;2022-12-07T03:15:29;41.45;;;20.63;;
55539;SDS011;41384;51.418;7.286;2022-12-07T03:18:00;45.65;;;20.60;;
55539;SDS011;41384;51.418;7.286;2022-12-07T03:20:29;44.35;;;22.65;;
55539;SDS011;41384;51.418;7.286;2022-12-07T03:22:54;41.42;;;20.98;;
55539;SDS011;41384;51.418;7.286;2022-12-07T03:25:22;41.15;;;20.42;;
55539;SDS011;41384;51.418;7.286;2022-12-07T03:28:21;40.60;;;20.50;;
55539;SDS011;41384;51.418;7.286;2022-12-07T03:30:57;41.13;;;21.45;;
55539;SDS011;41384;51.418;7.286;2022-12-07T03:33:28;41.65;;;21.55;;
55539;SDS011;41384;51.418;7.286;2022-12-07T03:36:02;42.55;;;20.25;;
55539;SDS011;41384;51.418;7.286;2022-12-07T03:38:40;46.33;;;22.15;;
55539;SDS011;41384;51.418;7.286;2022-12-07T03:41:23;43.42;;;20.25;;
55539;SDS011;41384;51.418;7.286;2022-12-07T03:43:51;40.97;;;20.98;;
55539;SDS011;41384;51.418;7.286;2022-12-07T03:54:45;37.35;;;20.15;;
55539;SDS011;41384;51.418;7.286;2022-12-07T03:57:16;37.80;;;20.65;;
55539;SDS011;41384;51.418;7.286;2022-12-07T03:59:43;36.80;;;19.38;;
55539;SDS011;41384;51.418;7.286;2022-12-07T04:02:09;39.75;;;20.38;;
55539;SDS011;41384;51.418;7.286;2022-12-07T04:04:37;35.10;;;19.13;;
55539;SDS011;41384;51.418;7.286;2022-12-07T04:07:03;41.65;;;19.10;;
55539;SDS011;41384;51.418;7.286;2022-12-07T04:09:28;38.15;;;19.27;;
55539;SDS011;41384;51.418;7.286;2022-12-07T04:11:54;39.88;;;19.55;;
55539;SDS011;41384;51.418;7.286;2022-12-07T04:14:19;37.80;;;19.15;;
55539;SDS011;41384;51.418;7.286;2022-12-07T04:16:45;39.78;;;18.88;;
55539;SDS011;41384;51.418;7.286;2022-12-07T04:19:14;36.30;;;18.50;;
55539;SDS011;41384;51.418;7.286;2022-12-07T04:21:40;37.20;;;19.35;;
55539;SDS011;41384;51.418;7.286;2022-12-07T04:24:05;40.42;;;19.02;;
55539;SDS011;41384;51.418;7.286;2022-12-07T04:26:31;44.63;;;20.38;;
55539;SDS011;41384;51.418;7.286;2022-12-07T04:28:56;38.78;;;19.02;;
55539;SDS011;41384;51.418;7.286;2022-12-07T04:31:21;38.70;;;18.95;;
55539;SDS011;41384;51.418;7.286;2022-12-07T04:33:47;38.92;;;18.42;;
55539;SDS011;41384;51.418;7.286;2022-12-07T04:36:12;36.33;;;18.25;;
55539;SDS011;41384;51.418;7.286;2022-12-07T04:38:37;39.83;;;18.40;;
55539;SDS011;41384;51.418;7.286;2022-12-07T04:41:06;38.55;;;18.63;;
55539;SDS011;41384;51.418;7.286;2022-12-07T04:43:32;42.13;;;20.45;;
55539;SDS011;41384;51.418;7.286;2022-12-07T04:45:58;38.45;;;18.05;;
55539;SDS011;41384;51.418;7.286;2022-12-07T04:48:23;40.47;;;18.73;;
55539;SDS011;41384;51.418;7.286;2022-12-07T04:50:49;37.70;;;18.02;;
55539;SDS011;41384;51.418;7.286;2022-12-07T04:53:14;38.53;;;17.50;;
55539;SDS011;41384;51.418;7.286;2022-12-07T04:55:40;36.22;;;17.48;;
55539;SDS011;41384;51.418;7.286;2022-12-07T04:58:05;38.97;;;18.60;;
55539;SDS011;41384;51.418;7.286;2022-12-07T05:00:30;34.75;;;16.92;;
55539;SDS011;41384;51.418;7.286;2022-12-07T05:02:55;34.38;;;17.60;;
55539;SDS011;41384;51.418;7.286;2022-12-07T05:05:21;34.67;;;17.30;;
55539;SDS011;41384;51.418;7.286;2022-12-07T05:07:46;35.92;;;17.10;;
55539;SDS011;41384;51.418;7.286;2022-12-07T05:10:11;38.58;;;17.40;;
55539;SDS011;41384;51.418;7.286;2022-12-07T05:12:37;36.55;;;18.58;;
55539;SDS011;41384;51.418;7.286;2022-12-07T05:15:02;39.33;;;18.00;;
55539;SDS011;41384;51.418;7.286;2022-12-07T05:17:28;36.55;;;15.50;;
55539;SDS011;41384;51.418;7.286;2022-12-07T05:19:53;38.25;;;18.15;;
55539;SDS011;41384;51.418;7.286;2022-12-07T05:22:18;37.08;;;17.17;;
55539;SDS011;41384;51.418;7.286;2022-12-07T05:24:43;35.05;;;17.15;;
55539;SDS011;41384;51.418;7.286;2022-12-07T05:27:09;32.97;;;16.70;;
55539;SDS011;41384;51.418;7.286;2022-12-07T05:29:34;35.85;;;16.38;;
55539;SDS011;41384;51.418;7.286;2022-12-07T05:32:00;33.35;;;16.38;;
55539;SDS011;41384;51.418;7.286;2022-12-07T05:34:25;31.88;;;16.17;;
55539;SDS011;41384;51.418;7.286;2022-12-07T05:36:50;32.83;;;15.63;;
55539;SDS011;41384;51.418;7.286;2022-12-07T05:39:16;32.08;;;16.52;;
55539;SDS011;41384;51.418;7.286;2022-12-07T05:41:41;31.67;;;16.55;;
55539;SDS011;41384;51.418;7.286;2022-12-07T05:44:25;35.58;;;16.58;;
55539;SDS011;41384;51.418;7.286;2022-12-07T05:46:50;40.30;;;18.45;;
55539;SDS011;41384;51.418;7.286;2022-12-07T05:49:15;34.47;;;17.30;;
55539;SDS011;41384;51.418;7.286;2022-12-07T05:51:41;32.33;;;16.95;;
55539;SDS011;41384;51.418;7.286;2022-12-07T05:54:06;29.55;;;15.38;;
55539;SDS011;41384;51.418;7.286;2022-12-07T05:56:31;36.83;;;16.13;;
55539;SDS011;41384;51.418;7.286;2022-12-07T05:58:57;33.55;;;15.88;;
55539;SDS011;41384;51.418;7.286;2022-12-07T06:01:41;36.95;;;16.58;;
55539;SDS011;41384;51.418;7.286;2022-12-07T06:04:06;30.48;;;15.48;;
55539;SDS011;41384;51.418;7.286;2022-12-07T06:06:32;32.08;;;16.20;;
55539;SDS011;41384;51.418;7.286;2022-12-07T06:08:57;32.08;;;16.45;;
55539;SDS011;41384;51.418;7.286;2022-12-07T06:11:22;29.63;;;15.10;;
55539;SDS011;41384;51.418;7.286;2022-12-07T06:14:06;34.65;;;16.33;;
55539;SDS011;41384;51.418;7.286;2022-12-07T06:16:32;33.47;;;17.23;;
55539;SDS011;41384;51.418;7.286;2022-12-07T06:18:57;34.78;;;16.42;;
55539;SDS011;41384;51.418;7.286;2022-12-07T06:21:22;31.45;;;16.42;;
55539;SDS011;41384;51.418;7.286;2022-12-07T06:23:47;33.53;;;16.45;;
55539;SDS011;41384;51.418;7.286;2022-12-07T06:26:13;32.88;;;15.90;;
55539;SDS011;41384;51.418;7.286;2022-12-07T06:28:38;35.15;;;17.08;;
55539;SDS011;41384;51.418;7.286;2022-12-07T06:31:04;32.40;;;16.00;;
55539;SDS011;41384;51.418;7.286;2022-12-07T06:33:30;34.95;;;16.50;;
55539;SDS011;41384;51.418;7.286;2022-12-07T06:35:55;30.90;;;15.95;;
55539;SDS011;41384;51.418;7.286;2022-12-07T06:38:21;34.38;;;16.60;;
55539;SDS011;41384;51.418;7.286;2022-12-07T06:40:46;28.25;;;15.05;;
55539;SDS011;41384;51.418;7.286;2022-12-07T06:43:13;30.27;;;15.77;;
55539;SDS011;41384;51.418;7.286;2022-12-07T06:45:38;30.25;;;15.48;;
55539;SDS011;41384;51.418;7.286;2022-12-07T06:48:03;29.80;;;15.77;;
55539;SDS011;41384;51.418;7.286;2022-12-07T06:50:29;26.42;;;13.77;;
55539;SDS011;41384;51.418;7.286;2022-12-07T06:52:54;30.50;;;14.43;;
55539;SDS011;41384;51.418;7.286;2022-12-07T06:55:19;32.65;;;14.35;;
55539;SDS011;41384;51.418;7.286;2022-12-07T06:57:44;25.35;;;13.55;;
55539;SDS011;41384;51.418;7.286;2022-12-07T07:00:10;26.00;;;13.63;;
55539;SDS011;41384;51.418;7.286;2022-12-07T07:02:36;26.92;;;13.13;;
55539;SDS011;41384;51.418;7.286;2022-12-07T07:05:02;30.63;;;13.85;;
55539;SDS011;41384;51.418;7.286;2022-12-07T07:07:27;24.80;;;13.05;;
55539;SDS011;41384;51.418;7.286;2022-12-07T07:09:53;23.20;;;13.27;;
55539;SDS011;41384;51.418;7.286;2022-12-07T07:12:18;26.52;;;12.77;;
55539;SDS011;41384;51.418;7.286;2022-12-07T07:14:43;21.60;;;11.65;;
55539;SDS011;41384;51.418;7.286;2022-12-07T07:17:09;21.92;;;11.73;;
55539;SDS011;41384;51.418;7.286;2022-12-07T07:19:34;22.75;;;11.32;;
55539;SDS011;41384;51.418;7.286;2022-12-07T07:21:59;21.42;;;11.65;;
55539;SDS011;41384;51.418;7.286;2022-12-07T07:24:25;23.15;;;11.95;;
55539;SDS011;41384;51.418;7.286;2022-12-07T07:26:50;24.67;;;11.65;;
55539;SDS011;41384;51.418;7.286;2022-12-07T07:29:15;21.02;;;12.13;;
55539;SDS011;41384;51.418;7.286;2022-12-07T07:31:40;25.55;;;11.50;;
55539;SDS011;41384;51.418;7.286;2022-12-07T07:34:06;23.38;;;11.68;;
55539;SDS011;41384;51.418;7.286;2022-12-07T07:36:32;21.08;;;12.15;;
55539;SDS011;41384;51.418;7.286;2022-12-07T07:38:57;23.38;;;11.98;;
55539;SDS011;41384;51.418;7.286;2022-12-07T07:41:22;22.70;;;11.60;;
55539;SDS011;41384;51.418;7.286;2022-12-07T07:43:48;21.27;;;10.80;;
55539;SDS011;41384;51.418;7.286;2022-12-07T07:46:13;22.58;;;11.55;;
55539;SDS011;41384;51.418;7.286;2022-12-07T07:48:38;19.42;;;11.45;;
55539;SDS011;41384;51.418;7.286;2022-12-07T07:51:07;24.00;;;11.73;;
55539;SDS011;41384;51.418;7.286;2022-12-07T07:53:33;22.45;;;11.90;;
55539;SDS011;41384;51.418;7.286;2022-12-07T07:55:59;19.95;;;10.13;;
55539;SDS011;41384;51.418;7.286;2022-12-07T07:58:24;17.50;;;10.43;;
55539;SDS011;41384;51.418;7.286;2022-12-07T08:00:49;21.95;;;10.88;;
55539;SDS011;41384;51.418;7.286;2022-12-07T08:03:15;19.80;;;10.40;;
55539;SDS011;41384;51.418;7.286;2022-12-07T08:05:40;19.13;;;11.07;;
55539;SDS011;41384;51.418;7.286;2022-12-07T08:08:05;19.08;;;10.52;;
55539;SDS011;41384;51.418;7.286;2022-12-07T08:10:30;17.85;;;9.98;;
55539;SDS011;41384;51.418;7.286;2022-12-07T08:12:57;17.67;;;10.15;;
55539;SDS011;41384;51.418;7.286;2022-12-07T08:15:44;22.23;;;10.25;;
55539;SDS011;41384;51.418;7.286;2022-12-07T08:18:11;16.00;;;9.63;;
55539;SDS011;41384;51.418;7.286;2022-12-07T08:20:38;17.60;;;9.38;;
55539;SDS011;41384;51.418;7.286;2022-12-07T08:23:04;18.23;;;9.80;;
55539;SDS011;41384;51.418;7.286;2022-12-07T08:25:30;15.15;;;10.10;;
55539;SDS011;41384;51.418;7.286;2022-12-07T08:27:57;18.67;;;9.73;;
55539;SDS011;41384;51.418;7.286;2022-12-07T08:30:22;18.92;;;9.23;;
55539;SDS011;41384;51.418;7.286;2022-12-07T08:32:47;18.85;;;10.20;;
55539;SDS011;41384;51.418;7.286;2022-12-07T08:35:14;16.20;;;9.48;;
55539;SDS011;41384;51.418;7.286;2022-12-07T08:37:39;21.65;;;10.68;;
55539;SDS011;41384;51.418;7.286;2022-12-07T08:40:06;18.77;;;9.77;;
55539;SDS011;41384;51.418;7.286;2022-12-07T08:42:32;17.90;;;9.60;;
55539;SDS011;41384;51.418;7.286;2022-12-07T08:45:06;20.98;;;10.50;;
55539;SDS011;41384;51.418;7.286;2022-12-07T08:47:34;20.90;;;10.00;;
55539;SDS011;41384;51.418;7.286;2022-12-07T08:50:02;17.35;;;10.52;;
55539;SDS011;41384;51.418;7.286;2022-12-07T08:52:29;19.00;;;9.43;;
55539;SDS011;41384;51.418;7.286;2022-12-07T08:54:55;21.98;;;9.80;;
55539;SDS011;41384;51.418;7.286;2022-12-07T08:57:21;22.27;;;10.25;;
55539;SDS011;41384;51.418;7.286;2022-12-07T08:59:46;18.60;;;9.57;;
55539;SDS011;41384;51.418;7.286;2022-12-07T09:02:12;15.82;;;9.48;;
55539;SDS011;41384;51.418;7.286;2022-12-07T09:04:37;17.52;;;9.38;;
55539;SDS011;41384;51.418;7.286;2022-12-07T09:07:02;20.75;;;9.32;;
55539;SDS011;41384;51.418;7.286;2022-12-07T09:09:28;19.65;;;8.40;;
55539;SDS011;41384;51.418;7.286;2022-12-07T09:11:54;17.27;;;9.07;;
55539;SDS011;41384;51.418;7.286;2022-12-07T09:14:19;13.57;;;8.85;;
55539;SDS011;41384;51.418;7.286;2022-12-07T09:16:44;20.50;;;8.95;;
55539;SDS011;41384;51.418;7.286;2022-12-07T09:19:10;17.42;;;8.52;;
55539;SDS011;41384;51.418;7.286;2022-12-07T09:21:35;15.73;;;8.48;;
55539;SDS011;41384;51.418;7.286;2022-12-07T09:24:00;14.50;;;8.50;;
55539;SDS011;41384;51.418;7.286;2022-12-07T09:26:25;17.17;;;8.32;;
55539;SDS011;41384;51.418;7.286;2022-12-07T09:28:51;17.33;;;8.75;;
55539;SDS011;41384;51.418;7.286;2022-12-07T09:31:16;18.35;;;9.13;;
55539;SDS011;41384;51.418;7.286;2022-12-07T09:33:42;15.10;;;7.65;;
55539;SDS011;41384;51.418;7.286;2022-12-07T09:36:07;14.35;;;8.00;;
55539;SDS011;41384;51.418;7.286;2022-12-07T09:38:34;16.88;;;9.52;;
55539;SDS011;41384;51.418;7.286;2022-12-07T09:41:03;19.42;;;10.02;;
55539;SDS011;41384;51.418;7.286;2022-12-07T09:43:31;16.25;;;10.00;;
55539;SDS011;41384;51.418;7.286;2022-12-07T09:45:56;24.60;;;11.77;;
55539;SDS011;41384;51.418;7.286;2022-12-07T09:51:02;22.55;;;12.25;;
55539;SDS011;41384;51.418;7.286;2022-12-07T09:56:02;24.33;;;12.10;;
55539;SDS011;41384;51.418;7.286;2022-12-07T09:58:28;30.17;;;12.90;;
55539;SDS011;41384;51.418;7.286;2022-12-07T10:01:16;23.77;;;13.02;;
55539;SDS011;41384;51.418;7.286;2022-12-07T10:03:48;26.45;;;12.70;;
55539;SDS011;41384;51.418;7.286;2022-12-07T10:06:16;21.63;;;11.05;;
55539;SDS011;41384;51.418;7.286;2022-12-07T10:08:41;22.17;;;11.35;;
55539;SDS011;41384;51.418;7.286;2022-12-07T10:11:08;23.13;;;11.23;;
55539;SDS011;41384;51.418;7.286;2022-12-07T10:13:51;18.02;;;10.80;;
55539;SDS011;41384;51.418;7.286;2022-12-07T10:19:19;24.20;;;11.27;;
55539;SDS011;41384;51.418;7.286;2022-12-07T10:24:41;22.02;;;10.70;;
55539;SDS011;41384;51.418;7.286;2022-12-07T10:27:18;17.95;;;9.93;;
55539;SDS011;41384;51.418;7.286;2022-12-07T10:29:50;17.38;;;9.95;;
55539;SDS011;41384;51.418;7.286;2022-12-07T10:34:41;18.70;;;9.98;;
55539;SDS011;41384;51.418;7.286;2022-12-07T10:39:42;17.00;;;8.95;;
55539;SDS011;41384;51.418;7.286;2022-12-07T10:42:25;15.75;;;8.77;;
55539;SDS011;41384;51.418;7.286;2022-12-07T10:45:07;20.13;;;9.63;;
55539;SDS011;41384;51.418;7.286;2022-12-07T10:47:45;17.15;;;8.82;;
55539;SDS011;41384;51.418;7.286;2022-12-07T11:11:24;15.73;;;9.90;;
55539;SDS011;41384;51.418;7.286;2022-12-07T11:14:08;11.30;;;6.30;;
55539;SDS011;41384;51.418;7.286;2022-12-07T11:16:48;14.18;;;6.05;;
55539;SDS011;41384;51.418;7.286;2022-12-07T11:28:03;12.93;;;5.68;;
55539;SDS011;41384;51.418;7.286;2022-12-07T11:30:26;9.80;;;5.43;;
55539;SDS011;41384;51.418;7.286;2022-12-07T11:32:58;9.88;;;5.45;;
55539;SDS011;41384;51.418;7.286;2022-12-07T11:36:02;12.93;;;4.85;;
55539;SDS011;41384;51.418;7.286;2022-12-07T11:41:15;10.57;;;5.75;;
55539;SDS011;41384;51.418;7.286;2022-12-07T11:43:52;12.52;;;6.53;;
55539;SDS011;41384;51.418;7.286;2022-12-07T11:46:22;11.80;;;6.55;;
55539;SDS011;41384;51.418;7.286;2022-12-07T11:49:02;13.85;;;6.40;;
55539;SDS011;41384;51.418;7.286;2022-12-07T11:51:36;9.90;;;6.35;;
55539;SDS011;41384;51.418;7.286;2022-12-07T11:54:18;12.52;;;5.80;;
55539;SDS011;41384;51.418;7.286;2022-12-07T11:56:49;12.40;;;6.93;;
55539;SDS011;41384;51.418;7.286;2022-12-07T11:59:23;12.30;;;6.60;;
55539;SDS011;41384;51.418;7.286;2022-12-07T12:01:52;13.20;;;6.85;;
55539;SDS011;41384;51.418;7.286;2022-12-07T12:04:29;15.80;;;6.32;;
55539;SDS011;41384;51.418;7.286;2022-12-07T12:07:00;12.80;;;6.80;;
55539;SDS011;41384;51.418;7.286;2022-12-07T12:09:31;14.50;;;7.47;;
55539;SDS011;41384;51.418;7.286;2022-12-07T12:12:05;15.95;;;7.65;;
55539;SDS011;41384;51.418;7.286;2022-12-07T12:14:38;13.45;;;7.47;;
55539;SDS011;41384;51.418;7.286;2022-12-07T12:17:22;14.88;;;7.82;;
55539;SDS011;41384;51.418;7.286;2022-12-07T12:22:55;12.30;;;7.80;;
55539;SDS011;41384;51.418;7.286;2022-12-07T12:25:26;15.55;;;7.93;;
55539;SDS011;41384;51.418;7.286;2022-12-07T12:27:55;14.75;;;7.63;;
55539;SDS011;41384;51.418;7.286;2022-12-07T12:30:34;13.43;;;6.68;;
55539;SDS011;41384;51.418;7.286;2022-12-07T12:33:05;13.48;;;7.65;;
55539;SDS011;41384;51.418;7.286;2022-12-07T12:39:17;10.82;;;6.80;;
55539;SDS011;41384;51.418;7.286;2022-12-07T12:51:49;9.98;;;5.47;;
55539;SDS011;41384;51.418;7.286;2022-12-07T12:56:53;10.57;;;4.50;;
55539;SDS011;41384;51.418;7.286;2022-12-07T12:59:29;6.20;;;4.00;;
55539;SDS011;41384;51.418;7.286;2022-12-07T13:02:07;10.40;;;4.82;;
55539;SDS011;41384;51.418;7.286;2022-12-07T13:04:49;9.07;;;4.88;;
55539;SDS011;41384;51.418;7.286;2022-12-07T13:07:47;11.10;;;4.18;;
55539;SDS011;41384;51.418;7.286;2022-12-07T13:13:40;8.70;;;4.50;;
55539;SDS011;41384;51.418;7.286;2022-12-07T13:15:44;7.50;;;3.83;;
55539;SDS011;41384;51.418;7.286;2022-12-07T13:20:57;8.25;;;4.53;;
55539;SDS011;41384;51.418;7.286;2022-12-07T13:31:14;10.15;;;3.80;;
55539;SDS011;41384;51.418;7.286;2022-12-07T13:33:47;8.63;;;3.78;;
55539;SDS011;41384;51.418;7.286;2022-12-07T13:36:17;10.82;;;3.45;;
55539;SDS011;41384;51.418;7.286;2022-12-07T13:38:49;9.13;;;4.10;;
55539;SDS011;41384;51.418;7.286;2022-12-07T13:41:24;4.45;;;3.42;;
55539;SDS011;41384;51.418;7.286;2022-12-07T13:43:52;12.77;;;4.43;;
55539;SDS011;41384;51.418;7.286;2022-12-07T13:48:52;10.52;;;3.50;;
55539;SDS011;41384;51.418;7.286;2022-12-07T13:51:36;8.45;;;2.72;;
55539;SDS011;41384;51.418;7.286;2022-12-07T13:54:08;8.95;;;2.90;;
55539;SDS011;41384;51.418;7.286;2022-12-07T13:56:35;8.05;;;2.80;;
55539;SDS011;41384;51.418;7.286;2022-12-07T13:59:01;7.38;;;3.50;;
55539;SDS011;41384;51.418;7.286;2022-12-07T14:01:26;7.15;;;3.08;;
55539;SDS011;41384;51.418;7.286;2022-12-07T14:03:55;8.85;;;3.72;;
55539;SDS011;41384;51.418;7.286;2022-12-07T14:08:50;5.55;;;3.08;;
55539;SDS011;41384;51.418;7.286;2022-12-07T14:11:16;6.88;;;3.38;;
55539;SDS011;41384;51.418;7.286;2022-12-07T14:13:45;4.88;;;2.70;;
55539;SDS011;41384;51.418;7.286;2022-12-07T14:18:50;10.73;;;3.53;;
55539;SDS011;41384;51.418;7.286;2022-12-07T14:21:17;6.80;;;3.15;;
55539;SDS011;41384;51.418;7.286;2022-12-07T14:23:44;9.20;;;3.47;;
55539;SDS011;41384;51.418;7.286;2022-12-07T14:26:26;7.78;;;3.08;;
55539;SDS011;41384;51.418;7.286;2022-12-07T14:28:51;7.93;;;3.00;;
55539;SDS011;41384;51.418;7.286;2022-12-07T14:31:17;6.00;;;3.08;;
55539;SDS011;41384;51.418;7.286;2022-12-07T14:33:45;9.77;;;3.85;;
55539;SDS011;41384;51.418;7.286;2022-12-07T14:36:12;5.63;;;2.90;;
55539;SDS011;41384;51.418;7.286;2022-12-07T14:38:38;12.45;;;3.28;;
55539;SDS011;41384;51.418;7.286;2022-12-07T14:41:04;5.15;;;3.15;;
55539;SDS011;41384;51.418;7.286;2022-12-07T14:43:56;9.27;;;3.92;;
55539;SDS011;41384;51.418;7.286;2022-12-07T14:46:21;11.05;;;4.75;;
55539;SDS011;41384;51.418;7.286;2022-12-07T14:48:47;7.25;;;3.72;;
55539;SDS011;41384;51.418;7.286;2022-12-07T14:51:13;7.25;;;3.10;;
55539;SDS011;41384;51.418;7.286;2022-12-07T14:53:39;6.78;;;2.83;;
55539;SDS011;41384;51.418;7.286;2022-12-07T14:56:07;5.05;;;2.90;;
55539;SDS011;41384;51.418;7.286;2022-12-07T14:58:33;6.00;;;2.80;;
55539;SDS011;41384;51.418;7.286;2022-12-07T15:00:58;5.75;;;2.88;;
55539;SDS011;41384;51.418;7.286;2022-12-07T15:03:24;7.55;;;2.92;;
55539;SDS011;41384;51.418;7.286;2022-12-07T15:05:49;7.25;;;2.70;;
55539;SDS011;41384;51.418;7.286;2022-12-07T15:08:15;5.05;;;2.53;;
55539;SDS011;41384;51.418;7.286;2022-12-07T15:10:40;4.55;;;2.60;;
55539;SDS011;41384;51.418;7.286;2022-12-07T15:13:05;4.97;;;3.00;;
55539;SDS011;41384;51.418;7.286;2022-12-07T15:15:51;4.55;;;2.60;;
55539;SDS011;41384;51.418;7.286;2022-12-07T15:18:18;8.05;;;2.78;;
55539;SDS011;41384;51.418;7.286;2022-12-07T15:20:44;4.13;;;2.78;;
55539;SDS011;41384;51.418;7.286;2022-12-07T15:23:10;4.18;;;2.60;;
55539;SDS011;41384;51.418;7.286;2022-12-07T15:25:36;8.48;;;3.13;;
55539;SDS011;41384;51.418;7.286;2022-12-07T15:28:04;7.43;;;3.33;;
55539;SDS011;41384;51.418;7.286;2022-12-07T15:30:30;4.93;;;3.00;;
55539;SDS011;41384;51.418;7.286;2022-12-07T15:32:55;3.53;;;2.67;;
55539;SDS011;41384;51.418;7.286;2022-12-07T15:35:20;8.02;;;2.63;;
55539;SDS011;41384;51.418;7.286;2022-12-07T15:37:46;8.10;;;2.72;;
55539;SDS011;41384;51.418;7.286;2022-12-07T15:40:12;4.78;;;2.70;;
55539;SDS011;41384;51.418;7.286;2022-12-07T15:42:37;5.70;;;3.28;;
55539;SDS011;41384;51.418;7.286;2022-12-07T15:45:04;6.57;;;3.50;;
55539;SDS011;41384;51.418;7.286;2022-12-07T15:47:31;6.82;;;3.00;;
55539;SDS011;41384;51.418;7.286;2022-12-07T15:50:04;7.65;;;2.97;;
55539;SDS011;41384;51.418;7.286;2022-12-07T15:52:33;6.28;;;2.72;;
55539;SDS011;41384;51.418;7.286;2022-12-07T15:54:58;9.23;;;3.15;;
55539;SDS011;41384;51.418;7.286;2022-12-07T15:57:25;4.78;;;3.10;;
55539;SDS011;41384;51.418;7.286;2022-12-07T15:59:51;11.57;;;3.65;;
55539;SDS011;41384;51.418;7.286;2022-12-07T16:02:16;10.48;;;3.80;;
55539;SDS011;41384;51.418;7.286;2022-12-07T16:04:42;8.32;;;3.45;;
55539;SDS011;41384;51.418;7.286;2022-12-07T16:07:07;11.50;;;3.63;;
55539;SDS011;41384;51.418;7.286;2022-12-07T16:09:33;9.13;;;3.10;;
55539;SDS011;41384;51.418;7.286;2022-12-07T16:11:58;7.03;;;3.75;;
55539;SDS011;41384;51.418;7.286;2022-12-07T16:14:23;7.43;;;3.60;;
55539;SDS011;41384;51.418;7.286;2022-12-07T16:16:49;8.55;;;3.80;;
55539;SDS011;41384;51.418;7.286;2022-12-07T16:19:14;9.02;;;3.28;;
55539;SDS011;41384;51.418;7.286;2022-12-07T16:21:39;8.93;;;3.67;;
55539;SDS011;41384;51.418;7.286;2022-12-07T16:24:05;10.50;;;3.65;;
55539;SDS011;41384;51.418;7.286;2022-12-07T16:26:31;5.13;;;3.28;;
55539;SDS011;41384;51.418;7.286;2022-12-07T16:28:57;5.97;;;3.15;;
55539;SDS011;41384;51.418;7.286;2022-12-07T16:31:23;6.68;;;2.95;;
55539;SDS011;41384;51.418;7.286;2022-12-07T16:33:52;7.82;;;3.30;;
55539;SDS011;41384;51.418;7.286;2022-12-07T16:36:18;7.53;;;3.78;;
55539;SDS011;41384;51.418;7.286;2022-12-07T16:38:43;6.70;;;3.47;;